sensor_id;sensor_type;location;lat;lon;timestamp;pressure;altitude;pressure_sealevel;temperature;humidity
34235;BME280;20500;49.856;20.290;2022-09-03T00:02:39;99156.02;;;12.30;63.87
34235;BME280;20500;49.856;20.290;2022-09-03T00:05:45;99155.05;;;12.32;63.90
34235;BME280;20500;49.856;20.290;2022-09-03T00:08:51;99154.57;;;12.33;63.96
34235;BME280;20500;49.856;20.290;2022-09-03T00:12:04;99152.61;;;12.33;64.09
34235;BME280;20500;49.856;20.290;2022-09-03T00:15:12;99152.49;;;12.32;64.16
34235;BME280;20500;49.856;20.290;2022-09-03T00:18:18;99154.65;;;12.33;64.20
34235;BME280;20500;49.856;20.290;2022-09-03T00:21:25;99148.62;;;12.33;64.29
34235;BME280;20500;49.856;20.290;2022-09-03T00:24:32;99148.08;;;12.34;64.28
34235;BME280;20500;49.856;20.290;2022-09-03T00:27:38;99150.14;;;12.34;64.42
34235;BME280;20500;49.856;20.290;2022-09-03T00:30:44;99147.81;;;12.33;64.44
34235;BME280;20500;49.856;20.290;2022-09-03T00:33:50;99150.81;;;12.31;64.51
34235;BME280;20500;49.856;20.290;2022-09-03T00:36:55;99150.00;;;12.29;64.59
34235;BME280;20500;49.856;20.290;2022-09-03T00:40:03;99150.19;;;12.25;64.62
34235;BME280;20500;49.856;20.290;2022-09-03T00:43:12;99153.19;;;12.22;64.76
34235;BME280;20500;49.856;20.290;2022-09-03T00:46:21;99152.63;;;12.21;64.63
34235;BME280;20500;49.856;20.290;2022-09-03T00:49:29;99152.89;;;12.18;64.70
34235;BME280;20500;49.856;20.290;2022-09-03T00:52:41;99150.30;;;12.16;64.79
34235;BME280;20500;49.856;20.290;2022-09-03T00:55:51;99147.36;;;12.13;64.81
34235;BME280;20500;49.856;20.290;2022-09-03T00:59:05;99141.70;;;12.08;64.76
34235;BME280;20500;49.856;20.290;2022-09-03T01:02:14;99145.38;;;12.03;64.85
34235;BME280;20500;49.856;20.290;2022-09-03T01:05:26;99143.61;;;11.97;64.92
34235;BME280;20500;49.856;20.290;2022-09-03T01:08:39;99143.98;;;11.91;65.01
34235;BME280;20500;49.856;20.290;2022-09-03T01:11:55;99144.16;;;11.85;65.00
34235;BME280;20500;49.856;20.290;2022-09-03T01:15:05;99142.95;;;11.80;64.92
34235;BME280;20500;49.856;20.290;2022-09-03T01:18:13;99140.88;;;11.75;65.07
34235;BME280;20500;49.856;20.290;2022-09-03T01:21:38;99141.31;;;11.69;65.05
34235;BME280;20500;49.856;20.290;2022-09-03T01:24:56;99139.63;;;11.62;65.03
34235;BME280;20500;49.856;20.290;2022-09-03T01:28:12;99142.98;;;11.56;65.10
34235;BME280;20500;49.856;20.290;2022-09-03T01:31:23;99138.83;;;11.49;65.18
34235;BME280;20500;49.856;20.290;2022-09-03T01:34:36;99136.77;;;11.43;65.28
34235;BME280;20500;49.856;20.290;2022-09-03T01:37:45;99137.59;;;11.37;65.22
34235;BME280;20500;49.856;20.290;2022-09-03T01:40:56;99140.86;;;11.30;65.10
34235;BME280;20500;49.856;20.290;2022-09-03T01:44:28;99140.80;;;11.22;65.26
34235;BME280;20500;49.856;20.290;2022-09-03T01:47:36;99138.13;;;11.16;65.24
34235;BME280;20500;49.856;20.290;2022-09-03T01:50:52;99146.11;;;11.09;65.40
34235;BME280;20500;49.856;20.290;2022-09-03T01:54:23;99148.27;;;11.03;65.43
34235;BME280;20500;49.856;20.290;2022-09-03T01:57:39;99150.27;;;10.98;65.40
34235;BME280;20500;49.856;20.290;2022-09-03T02:00:48;99149.14;;;10.94;65.55
34235;BME280;20500;49.856;20.290;2022-09-03T02:03:54;99147.17;;;10.91;65.62
34235;BME280;20500;49.856;20.290;2022-09-03T02:07:02;99147.34;;;10.86;65.70
34235;BME280;20500;49.856;20.290;2022-09-03T02:10:08;99148.19;;;10.81;65.74
34235;BME280;20500;49.856;20.290;2022-09-03T02:13:15;99145.46;;;10.78;65.71
34235;BME280;20500;49.856;20.290;2022-09-03T02:16:20;99146.86;;;10.73;65.76
34235;BME280;20500;49.856;20.290;2022-09-03T02:19:26;99150.45;;;10.70;65.82
34235;BME280;20500;49.856;20.290;2022-09-03T02:22:30;99153.52;;;10.69;65.88
34235;BME280;20500;49.856;20.290;2022-09-03T02:25:36;99151.05;;;10.67;65.95
34235;BME280;20500;49.856;20.290;2022-09-03T02:28:40;99157.21;;;10.63;65.84
34235;BME280;20500;49.856;20.290;2022-09-03T02:31:44;99161.66;;;10.59;65.89
34235;BME280;20500;49.856;20.290;2022-09-03T02:34:48;99160.96;;;10.54;65.88
34235;BME280;20500;49.856;20.290;2022-09-03T02:37:52;99161.17;;;10.49;66.06
34235;BME280;20500;49.856;20.290;2022-09-03T02:40:56;99163.52;;;10.44;66.06
34235;BME280;20500;49.856;20.290;2022-09-03T02:44:02;99158.71;;;10.41;66.18
34235;BME280;20500;49.856;20.290;2022-09-03T02:47:08;99157.70;;;10.37;66.42
34235;BME280;20500;49.856;20.290;2022-09-03T02:50:12;99156.97;;;10.35;66.45
34235;BME280;20500;49.856;20.290;2022-09-03T02:53:16;99157.92;;;10.35;66.34
34235;BME280;20500;49.856;20.290;2022-09-03T02:56:20;99159.73;;;10.34;66.34
34235;BME280;20500;49.856;20.290;2022-09-03T02:59:28;99161.13;;;10.32;66.52
34235;BME280;20500;49.856;20.290;2022-09-03T03:02:32;99161.76;;;10.29;66.44
34235;BME280;20500;49.856;20.290;2022-09-03T03:05:39;99159.73;;;10.27;66.56
34235;BME280;20500;49.856;20.290;2022-09-03T03:08:45;99157.02;;;10.30;66.67
34235;BME280;20500;49.856;20.290;2022-09-03T03:11:49;99158.95;;;10.32;66.78
34235;BME280;20500;49.856;20.290;2022-09-03T03:14:53;99159.73;;;10.33;66.70
34235;BME280;20500;49.856;20.290;2022-09-03T03:17:57;99166.70;;;10.33;66.80
34235;BME280;20500;49.856;20.290;2022-09-03T03:21:04;99164.84;;;10.32;66.95
34235;BME280;20500;49.856;20.290;2022-09-03T03:24:08;99165.26;;;10.31;66.98
34235;BME280;20500;49.856;20.290;2022-09-03T03:27:12;99166.63;;;10.33;67.00
34235;BME280;20500;49.856;20.290;2022-09-03T03:30:16;99163.82;;;10.34;67.12
34235;BME280;20500;49.856;20.290;2022-09-03T03:33:22;99161.09;;;10.34;67.32
34235;BME280;20500;49.856;20.290;2022-09-03T03:36:27;99158.91;;;10.34;67.39
34235;BME280;20500;49.856;20.290;2022-09-03T03:39:32;99155.50;;;10.36;67.43
34235;BME280;20500;49.856;20.290;2022-09-03T03:42:36;99156.96;;;10.35;67.61
34235;BME280;20500;49.856;20.290;2022-09-03T03:45:40;99152.39;;;10.39;67.69
34235;BME280;20500;49.856;20.290;2022-09-03T03:48:46;99153.99;;;10.43;67.66
34235;BME280;20500;49.856;20.290;2022-09-03T03:51:50;99155.41;;;10.45;67.77
34235;BME280;20500;49.856;20.290;2022-09-03T03:54:54;99153.86;;;10.48;67.80
34235;BME280;20500;49.856;20.290;2022-09-03T03:57:59;99157.92;;;10.52;67.85
34235;BME280;20500;49.856;20.290;2022-09-03T04:01:06;99158.42;;;10.54;67.95
34235;BME280;20500;49.856;20.290;2022-09-03T04:04:10;99158.38;;;10.56;67.91
34235;BME280;20500;49.856;20.290;2022-09-03T04:07:14;99161.11;;;10.59;67.96
34235;BME280;20500;49.856;20.290;2022-09-03T04:10:18;99155.18;;;10.62;68.03
34235;BME280;20500;49.856;20.290;2022-09-03T04:13:22;99153.52;;;10.65;68.09
34235;BME280;20500;49.856;20.290;2022-09-03T04:16:27;99153.91;;;10.67;68.01
34235;BME280;20500;49.856;20.290;2022-09-03T04:19:31;99149.60;;;10.70;68.12
34235;BME280;20500;49.856;20.290;2022-09-03T04:22:35;99146.35;;;10.73;68.20
34235;BME280;20500;49.856;20.290;2022-09-03T04:25:39;99138.88;;;10.75;68.30
34235;BME280;20500;49.856;20.290;2022-09-03T04:28:43;99137.38;;;10.77;68.26
34235;BME280;20500;49.856;20.290;2022-09-03T04:31:48;99138.02;;;10.79;68.41
34235;BME280;20500;49.856;20.290;2022-09-03T04:35:10;99141.42;;;10.81;68.45
34235;BME280;20500;49.856;20.290;2022-09-03T04:38:14;99145.00;;;10.85;68.46
34235;BME280;20500;49.856;20.290;2022-09-03T04:41:19;99145.59;;;10.89;68.63
34235;BME280;20500;49.856;20.290;2022-09-03T04:44:23;99148.23;;;10.92;68.50
34235;BME280;20500;49.856;20.290;2022-09-03T04:47:27;99153.02;;;10.96;68.67
34235;BME280;20500;49.856;20.290;2022-09-03T04:50:32;99156.69;;;11.01;68.63
34235;BME280;20500;49.856;20.290;2022-09-03T04:53:37;99162.33;;;11.04;68.78
34235;BME280;20500;49.856;20.290;2022-09-03T04:56:42;99169.00;;;11.07;68.79
34235;BME280;20500;49.856;20.290;2022-09-03T04:59:46;99172.63;;;11.09;68.73
34235;BME280;20500;49.856;20.290;2022-09-03T05:02:50;99177.95;;;11.07;68.89
34235;BME280;20500;49.856;20.290;2022-09-03T05:05:54;99172.84;;;11.08;68.95
34235;BME280;20500;49.856;20.290;2022-09-03T05:08:58;99175.63;;;11.12;69.02
34235;BME280;20500;49.856;20.290;2022-09-03T05:12:03;99179.44;;;11.17;69.05
34235;BME280;20500;49.856;20.290;2022-09-03T05:15:08;99183.09;;;11.21;69.11
34235;BME280;20500;49.856;20.290;2022-09-03T05:18:12;99189.85;;;11.28;69.12
34235;BME280;20500;49.856;20.290;2022-09-03T05:21:17;99185.64;;;11.32;69.03
34235;BME280;20500;49.856;20.290;2022-09-03T05:24:21;99186.38;;;11.34;69.17
34235;BME280;20500;49.856;20.290;2022-09-03T05:27:26;99182.09;;;11.37;69.16
34235;BME280;20500;49.856;20.290;2022-09-03T05:30:30;99187.20;;;11.42;69.22
34235;BME280;20500;49.856;20.290;2022-09-03T05:33:34;99186.52;;;11.47;69.38
34235;BME280;20500;49.856;20.290;2022-09-03T05:36:39;99187.06;;;11.55;69.42
34235;BME280;20500;49.856;20.290;2022-09-03T05:39:43;99190.86;;;11.61;69.43
34235;BME280;20500;49.856;20.290;2022-09-03T05:42:47;99192.21;;;11.66;69.45
34235;BME280;20500;49.856;20.290;2022-09-03T05:45:58;99196.12;;;11.73;69.54
34235;BME280;20500;49.856;20.290;2022-09-03T05:49:03;99192.68;;;11.79;69.45
34235;BME280;20500;49.856;20.290;2022-09-03T05:52:08;99186.95;;;11.86;69.47
34235;BME280;20500;49.856;20.290;2022-09-03T05:55:11;99183.70;;;11.89;69.51
34235;BME280;20500;49.856;20.290;2022-09-03T05:58:17;99183.65;;;11.88;69.51
34235;BME280;20500;49.856;20.290;2022-09-03T06:01:21;99181.95;;;11.87;69.63
34235;BME280;20500;49.856;20.290;2022-09-03T06:04:26;99183.11;;;11.86;69.56
34235;BME280;20500;49.856;20.290;2022-09-03T06:07:30;99181.02;;;11.88;69.81
34235;BME280;20500;49.856;20.290;2022-09-03T06:10:35;99175.41;;;11.92;69.80
34235;BME280;20500;49.856;20.290;2022-09-03T06:13:42;99170.41;;;11.94;69.79
34235;BME280;20500;49.856;20.290;2022-09-03T06:16:47;99179.31;;;11.98;69.82
34235;BME280;20500;49.856;20.290;2022-09-03T06:19:51;99178.25;;;12.01;69.77
34235;BME280;20500;49.856;20.290;2022-09-03T06:22:55;99177.63;;;12.04;69.89
34235;BME280;20500;49.856;20.290;2022-09-03T06:26:00;99176.64;;;12.08;69.76
34235;BME280;20500;49.856;20.290;2022-09-03T06:29:07;99183.13;;;12.14;69.99
34235;BME280;20500;49.856;20.290;2022-09-03T06:32:11;99186.40;;;12.23;70.05
34235;BME280;20500;49.856;20.290;2022-09-03T06:35:16;99189.55;;;12.33;70.09
34235;BME280;20500;49.856;20.290;2022-09-03T06:38:20;99195.00;;;12.42;69.90
34235;BME280;20500;49.856;20.290;2022-09-03T06:41:24;99197.29;;;12.51;70.10
34235;BME280;20500;49.856;20.290;2022-09-03T06:44:29;99198.19;;;12.61;70.03
34235;BME280;20500;49.856;20.290;2022-09-03T06:47:33;99197.06;;;12.70;69.93
34235;BME280;20500;49.856;20.290;2022-09-03T06:50:37;99194.41;;;12.77;69.97
34235;BME280;20500;49.856;20.290;2022-09-03T06:53:42;99195.45;;;12.84;69.81
34235;BME280;20500;49.856;20.290;2022-09-03T06:56:46;99201.05;;;12.88;69.78
34235;BME280;20500;49.856;20.290;2022-09-03T06:59:50;99205.86;;;12.94;70.04
34235;BME280;20500;49.856;20.290;2022-09-03T07:02:56;99209.76;;;13.05;69.88
34235;BME280;20500;49.856;20.290;2022-09-03T07:06:01;99207.70;;;13.14;69.86
34235;BME280;20500;49.856;20.290;2022-09-03T07:09:07;99210.41;;;13.15;69.74
34235;BME280;20500;49.856;20.290;2022-09-03T07:12:11;99207.02;;;13.16;69.67
34235;BME280;20500;49.856;20.290;2022-09-03T07:15:17;99206.65;;;13.26;69.99
34235;BME280;20500;49.856;20.290;2022-09-03T07:18:22;99211.73;;;13.35;69.93
34235;BME280;20500;49.856;20.290;2022-09-03T07:21:27;99215.64;;;13.45;69.95
34235;BME280;20500;49.856;20.290;2022-09-03T07:24:31;99218.63;;;13.54;69.91
34235;BME280;20500;49.856;20.290;2022-09-03T07:27:35;99219.02;;;13.61;69.96
34235;BME280;20500;49.856;20.290;2022-09-03T07:30:39;99221.83;;;13.66;69.86
34235;BME280;20500;49.856;20.290;2022-09-03T07:33:43;99224.19;;;13.71;69.85
34235;BME280;20500;49.856;20.290;2022-09-03T07:36:47;99234.27;;;13.73;69.88
34235;BME280;20500;49.856;20.290;2022-09-03T07:39:53;99232.34;;;13.81;69.92
34235;BME280;20500;49.856;20.290;2022-09-03T07:42:57;99232.11;;;13.89;69.83
34235;BME280;20500;49.856;20.290;2022-09-03T07:46:06;99230.43;;;13.85;69.65
34235;BME280;20500;49.856;20.290;2022-09-03T07:49:10;99229.89;;;13.85;69.73
34235;BME280;20500;49.856;20.290;2022-09-03T07:52:14;99230.44;;;13.93;69.82
34235;BME280;20500;49.856;20.290;2022-09-03T07:55:19;99228.27;;;14.02;69.70
34235;BME280;20500;49.856;20.290;2022-09-03T07:58:24;99231.57;;;14.10;69.74
34235;BME280;20500;49.856;20.290;2022-09-03T08:01:28;99233.16;;;14.14;69.49
34235;BME280;20500;49.856;20.290;2022-09-03T08:04:33;99235.80;;;14.14;69.43
34235;BME280;20500;49.856;20.290;2022-09-03T08:07:38;99232.70;;;14.17;69.46
34235;BME280;20500;49.856;20.290;2022-09-03T08:10:43;99234.76;;;14.21;69.45
34235;BME280;20500;49.856;20.290;2022-09-03T08:13:47;99233.86;;;14.26;69.60
34235;BME280;20500;49.856;20.290;2022-09-03T08:16:51;99236.45;;;14.34;69.49
34235;BME280;20500;49.856;20.290;2022-09-03T08:19:55;99235.96;;;14.46;69.49
34235;BME280;20500;49.856;20.290;2022-09-03T08:23:01;99236.54;;;14.57;69.37
34235;BME280;20500;49.856;20.290;2022-09-03T08:26:05;99240.95;;;14.61;69.21
34235;BME280;20500;49.856;20.290;2022-09-03T08:29:09;99239.17;;;14.65;69.35
34235;BME280;20500;49.856;20.290;2022-09-03T08:32:13;99241.64;;;14.69;69.21
34235;BME280;20500;49.856;20.290;2022-09-03T08:35:17;99238.52;;;14.74;69.28
34235;BME280;20500;49.856;20.290;2022-09-03T08:38:23;99238.79;;;14.83;69.23
34235;BME280;20500;49.856;20.290;2022-09-03T08:41:38;99236.58;;;14.90;69.20
34235;BME280;20500;49.856;20.290;2022-09-03T08:44:47;99231.73;;;15.03;69.19
34235;BME280;20500;49.856;20.290;2022-09-03T08:47:54;99231.30;;;15.20;69.37
34235;BME280;20500;49.856;20.290;2022-09-03T08:51:02;99228.88;;;15.33;69.08
34235;BME280;20500;49.856;20.290;2022-09-03T08:54:07;99225.55;;;15.46;69.10
34235;BME280;20500;49.856;20.290;2022-09-03T08:57:12;99223.06;;;15.55;68.97
34235;BME280;20500;49.856;20.290;2022-09-03T09:00:17;99222.63;;;15.62;68.82
34235;BME280;20500;49.856;20.290;2022-09-03T09:03:36;99223.61;;;15.67;68.66
34235;BME280;20500;49.856;20.290;2022-09-03T09:06:45;99223.36;;;15.70;68.50
34235;BME280;20500;49.856;20.290;2022-09-03T09:09:54;99224.75;;;15.70;68.53
34235;BME280;20500;49.856;20.290;2022-09-03T09:13:06;99227.96;;;15.68;68.42
34235;BME280;20500;49.856;20.290;2022-09-03T09:16:17;99232.30;;;15.62;68.20
34235;BME280;20500;49.856;20.290;2022-09-03T09:19:25;99235.61;;;15.59;68.29
34235;BME280;20500;49.856;20.290;2022-09-03T09:22:34;99237.09;;;15.62;68.08
34235;BME280;20500;49.856;20.290;2022-09-03T09:25:43;99241.31;;;15.63;68.12
34235;BME280;20500;49.856;20.290;2022-09-03T09:28:51;99248.56;;;15.66;68.03
34235;BME280;20500;49.856;20.290;2022-09-03T09:31:56;99252.36;;;15.73;67.91
34235;BME280;20500;49.856;20.290;2022-09-03T09:35:00;99249.55;;;15.76;67.83
34235;BME280;20500;49.856;20.290;2022-09-03T09:38:04;99252.03;;;15.77;67.74
34235;BME280;20500;49.856;20.290;2022-09-03T09:41:10;99258.41;;;15.81;67.75
34235;BME280;20500;49.856;20.290;2022-09-03T09:44:19;99264.31;;;15.89;67.67
34235;BME280;20500;49.856;20.290;2022-09-03T09:47:24;99267.79;;;15.92;67.50
34235;BME280;20500;49.856;20.290;2022-09-03T09:50:29;99265.54;;;15.98;67.53
34235;BME280;20500;49.856;20.290;2022-09-03T09:53:33;99258.44;;;16.00;67.35
34235;BME280;20500;49.856;20.290;2022-09-03T09:56:37;99255.44;;;16.01;67.39
34235;BME280;20500;49.856;20.290;2022-09-03T09:59:42;99259.66;;;16.07;67.24
34235;BME280;20500;49.856;20.290;2022-09-03T10:02:47;99259.95;;;16.09;67.18
34235;BME280;20500;49.856;20.290;2022-09-03T10:06:00;99264.52;;;16.05;66.91
34235;BME280;20500;49.856;20.290;2022-09-03T10:09:26;99262.66;;;16.00;66.81
34235;BME280;20500;49.856;20.290;2022-09-03T10:12:34;99257.42;;;15.97;66.85
34235;BME280;20500;49.856;20.290;2022-09-03T10:15:41;99253.63;;;15.97;66.76
34235;BME280;20500;49.856;20.290;2022-09-03T10:18:49;99243.86;;;15.98;66.70
34235;BME280;20500;49.856;20.290;2022-09-03T10:22:01;99236.56;;;16.00;66.76
34235;BME280;20500;49.856;20.290;2022-09-03T10:25:08;99239.13;;;16.05;66.54
34235;BME280;20500;49.856;20.290;2022-09-03T10:28:12;99235.77;;;16.12;66.55
34235;BME280;20500;49.856;20.290;2022-09-03T10:31:32;99234.71;;;16.20;66.57
34235;BME280;20500;49.856;20.290;2022-09-03T10:34:40;99234.16;;;16.21;66.35
34235;BME280;20500;49.856;20.290;2022-09-03T10:37:48;99229.80;;;16.21;66.42
34235;BME280;20500;49.856;20.290;2022-09-03T10:40:55;99227.58;;;16.31;66.46
34235;BME280;20500;49.856;20.290;2022-09-03T10:44:09;99233.09;;;16.42;66.28
34235;BME280;20500;49.856;20.290;2022-09-03T10:47:20;99239.81;;;16.52;66.25
34235;BME280;20500;49.856;20.290;2022-09-03T10:50:43;99240.33;;;16.68;66.23
34235;BME280;20500;49.856;20.290;2022-09-03T10:54:00;99249.21;;;16.82;66.02
34235;BME280;20500;49.856;20.290;2022-09-03T10:57:10;99251.02;;;16.77;65.75
34235;BME280;20500;49.856;20.290;2022-09-03T11:00:17;99250.80;;;16.68;65.70
34235;BME280;20500;49.856;20.290;2022-09-03T11:03:28;99249.27;;;16.69;65.57
34235;BME280;20500;49.856;20.290;2022-09-03T11:06:37;99249.23;;;16.77;65.70
34235;BME280;20500;49.856;20.290;2022-09-03T11:09:45;99249.46;;;16.83;65.53
34235;BME280;20500;49.856;20.290;2022-09-03T11:12:52;99249.70;;;16.75;65.33
34235;BME280;20500;49.856;20.290;2022-09-03T11:16:00;99244.33;;;16.74;65.40
34235;BME280;20500;49.856;20.290;2022-09-03T11:19:08;99243.85;;;16.81;65.27
34235;BME280;20500;49.856;20.290;2022-09-03T11:22:14;99244.67;;;16.87;65.41
34235;BME280;20500;49.856;20.290;2022-09-03T11:25:24;99249.17;;;16.90;65.37
34235;BME280;20500;49.856;20.290;2022-09-03T11:28:33;99249.77;;;16.91;65.13
34235;BME280;20500;49.856;20.290;2022-09-03T11:31:51;99246.23;;;16.85;65.07
34235;BME280;20500;49.856;20.290;2022-09-03T11:34:59;99245.83;;;16.84;64.97
34235;BME280;20500;49.856;20.290;2022-09-03T11:38:04;99242.55;;;16.85;64.94
34235;BME280;20500;49.856;20.290;2022-09-03T11:41:13;99242.20;;;16.81;64.90
34235;BME280;20500;49.856;20.290;2022-09-03T11:44:18;99234.08;;;16.77;64.85
34235;BME280;20500;49.856;20.290;2022-09-03T11:47:23;99224.95;;;16.75;64.67
34235;BME280;20500;49.856;20.290;2022-09-03T11:50:27;99223.48;;;16.69;64.76
34235;BME280;20500;49.856;20.290;2022-09-03T11:53:35;99223.06;;;16.69;64.72
34235;BME280;20500;49.856;20.290;2022-09-03T11:56:40;99222.23;;;16.66;64.80
34235;BME280;20500;49.856;20.290;2022-09-03T11:59:44;99224.52;;;16.66;64.74
34235;BME280;20500;49.856;20.290;2022-09-03T12:02:49;99222.30;;;16.74;64.83
34235;BME280;20500;49.856;20.290;2022-09-03T12:06:07;99220.70;;;16.81;64.68
34235;BME280;20500;49.856;20.290;2022-09-03T12:09:24;99217.90;;;16.92;64.66
34235;BME280;20500;49.856;20.290;2022-09-03T12:16:04;99214.67;;;17.17;64.49
34235;BME280;20500;49.856;20.290;2022-09-03T12:19:17;99212.05;;;17.22;64.60
34235;BME280;20500;49.856;20.290;2022-09-03T12:22:25;99220.17;;;17.42;64.54
34235;BME280;20500;49.856;20.290;2022-09-03T12:25:30;99214.40;;;17.55;64.34
34235;BME280;20500;49.856;20.290;2022-09-03T12:28:35;99216.41;;;17.67;64.48
34235;BME280;20500;49.856;20.290;2022-09-03T12:31:45;99220.08;;;17.79;64.23
34235;BME280;20500;49.856;20.290;2022-09-03T12:34:54;99214.21;;;17.86;64.28
34235;BME280;20500;49.856;20.290;2022-09-03T12:37:58;99210.14;;;17.99;64.10
34235;BME280;20500;49.856;20.290;2022-09-03T12:41:20;99210.07;;;18.03;63.72
34235;BME280;20500;49.856;20.290;2022-09-03T12:44:30;99200.45;;;17.98;63.57
34235;BME280;20500;49.856;20.290;2022-09-03T12:47:38;99199.98;;;17.95;63.56
34235;BME280;20500;49.856;20.290;2022-09-03T12:50:43;99203.92;;;18.03;63.68
34235;BME280;20500;49.856;20.290;2022-09-03T12:53:57;99203.98;;;18.14;63.35
34235;BME280;20500;49.856;20.290;2022-09-03T12:57:03;99199.16;;;18.12;63.26
34235;BME280;20500;49.856;20.290;2022-09-03T13:00:09;99194.73;;;18.19;63.22
34235;BME280;20500;49.856;20.290;2022-09-03T13:03:17;99189.40;;;18.22;62.98
34235;BME280;20500;49.856;20.290;2022-09-03T13:06:23;99184.30;;;18.23;62.85
34235;BME280;20500;49.856;20.290;2022-09-03T13:09:28;99178.61;;;18.31;62.99
34235;BME280;20500;49.856;20.290;2022-09-03T13:12:40;99176.57;;;18.42;62.85
34235;BME280;20500;49.856;20.290;2022-09-03T13:15:55;99174.49;;;18.46;62.56
34235;BME280;20500;49.856;20.290;2022-09-03T13:19:00;99175.23;;;18.45;62.43
34235;BME280;20500;49.856;20.290;2022-09-03T13:22:09;99176.20;;;18.38;62.41
34235;BME280;20500;49.856;20.290;2022-09-03T13:25:18;99182.36;;;18.33;62.34
34235;BME280;20500;49.856;20.290;2022-09-03T13:28:29;99177.77;;;18.34;62.34
34235;BME280;20500;49.856;20.290;2022-09-03T13:31:37;99177.15;;;18.36;62.21
34235;BME280;20500;49.856;20.290;2022-09-03T13:34:47;99172.27;;;18.33;62.14
34235;BME280;20500;49.856;20.290;2022-09-03T13:37:54;99175.52;;;18.28;62.08
34235;BME280;20500;49.856;20.290;2022-09-03T13:41:01;99175.69;;;18.16;61.86
34235;BME280;20500;49.856;20.290;2022-09-03T13:44:10;99173.91;;;18.11;62.12
34235;BME280;20500;49.856;20.290;2022-09-03T13:47:21;99172.16;;;18.09;61.78
34235;BME280;20500;49.856;20.290;2022-09-03T13:50:30;99176.27;;;18.04;61.86
34235;BME280;20500;49.856;20.290;2022-09-03T13:53:39;99180.55;;;17.89;61.68
34235;BME280;20500;49.856;20.290;2022-09-03T13:56:48;99174.42;;;17.75;61.69
34235;BME280;20500;49.856;20.290;2022-09-03T13:59:59;99172.88;;;17.72;61.80
34235;BME280;20500;49.856;20.290;2022-09-03T14:03:07;99170.07;;;17.69;61.77
34235;BME280;20500;49.856;20.290;2022-09-03T14:06:17;99171.98;;;17.76;61.59
34235;BME280;20500;49.856;20.290;2022-09-03T14:09:26;99175.17;;;17.88;61.70
34235;BME280;20500;49.856;20.290;2022-09-03T14:12:38;99175.53;;;17.99;61.68
34235;BME280;20500;49.856;20.290;2022-09-03T14:15:46;99181.60;;;18.10;61.61
34235;BME280;20500;49.856;20.290;2022-09-03T14:18:53;99179.64;;;18.15;61.38
34235;BME280;20500;49.856;20.290;2022-09-03T14:22:00;99180.64;;;18.13;61.45
34235;BME280;20500;49.856;20.290;2022-09-03T14:25:10;99176.58;;;18.04;61.39
34235;BME280;20500;49.856;20.290;2022-09-03T14:28:19;99180.09;;;17.96;61.29
34235;BME280;20500;49.856;20.290;2022-09-03T14:31:38;99174.77;;;17.98;61.30
34235;BME280;20500;49.856;20.290;2022-09-03T14:34:48;99173.06;;;18.03;61.43
34235;BME280;20500;49.856;20.290;2022-09-03T14:38:11;99173.05;;;18.01;61.25
34235;BME280;20500;49.856;20.290;2022-09-03T14:41:30;99170.02;;;17.89;61.17
34235;BME280;20500;49.856;20.290;2022-09-03T14:44:42;99174.73;;;17.81;61.17
34235;BME280;20500;49.856;20.290;2022-09-03T14:47:55;99173.40;;;17.77;61.26
34235;BME280;20500;49.856;20.290;2022-09-03T14:57:52;99171.80;;;17.60;61.33
34235;BME280;20500;49.856;20.290;2022-09-03T15:01:01;99168.76;;;17.54;61.36
34235;BME280;20500;49.856;20.290;2022-09-03T15:07:31;99170.29;;;17.48;61.40
34235;BME280;20500;49.856;20.290;2022-09-03T15:10:41;99170.25;;;17.44;61.24
34235;BME280;20500;49.856;20.290;2022-09-03T15:13:50;99168.59;;;17.38;61.33
34235;BME280;20500;49.856;20.290;2022-09-03T15:16:57;99170.74;;;17.34;61.42
34235;BME280;20500;49.856;20.290;2022-09-03T15:20:05;99171.69;;;17.34;61.46
34235;BME280;20500;49.856;20.290;2022-09-03T15:26:42;99167.93;;;17.37;61.42
34235;BME280;20500;49.856;20.290;2022-09-03T15:29:50;99169.61;;;17.38;61.43
34235;BME280;20500;49.856;20.290;2022-09-03T15:33:00;99171.73;;;17.42;61.70
34235;BME280;20500;49.856;20.290;2022-09-03T15:36:11;99171.45;;;17.47;61.57
34235;BME280;20500;49.856;20.290;2022-09-03T15:39:21;99166.66;;;17.50;61.58
34235;BME280;20500;49.856;20.290;2022-09-03T15:42:26;99163.96;;;17.51;61.49
34235;BME280;20500;49.856;20.290;2022-09-03T15:45:33;99160.90;;;17.52;61.56
34235;BME280;20500;49.856;20.290;2022-09-03T15:48:43;99158.20;;;17.54;61.92
34235;BME280;20500;49.856;20.290;2022-09-03T15:51:50;99158.25;;;17.54;61.63
34235;BME280;20500;49.856;20.290;2022-09-03T15:54:59;99157.30;;;17.52;61.74
34235;BME280;20500;49.856;20.290;2022-09-03T15:58:07;99161.08;;;17.51;61.60
34235;BME280;20500;49.856;20.290;2022-09-03T16:01:20;99166.92;;;17.51;61.92
34235;BME280;20500;49.856;20.290;2022-09-03T16:04:30;99167.94;;;17.52;61.95
34235;BME280;20500;49.856;20.290;2022-09-03T16:11:08;99170.44;;;17.50;61.93
34235;BME280;20500;49.856;20.290;2022-09-03T16:14:16;99164.07;;;17.48;61.79
34235;BME280;20500;49.856;20.290;2022-09-03T16:17:26;99158.48;;;17.48;61.80
34235;BME280;20500;49.856;20.290;2022-09-03T16:20:33;99152.30;;;17.46;61.85
34235;BME280;20500;49.856;20.290;2022-09-03T16:23:39;99153.00;;;17.44;61.85
34235;BME280;20500;49.856;20.290;2022-09-03T16:26:47;99157.22;;;17.41;61.94
34235;BME280;20500;49.856;20.290;2022-09-03T16:29:56;99162.10;;;17.41;62.06
34235;BME280;20500;49.856;20.290;2022-09-03T16:33:03;99160.53;;;17.40;62.27
34235;BME280;20500;49.856;20.290;2022-09-03T16:36:17;99161.70;;;17.38;62.11
34235;BME280;20500;49.856;20.290;2022-09-03T16:39:29;99162.98;;;17.36;62.00
34235;BME280;20500;49.856;20.290;2022-09-03T16:42:40;99163.21;;;17.33;62.27